createdAt,value
2019-05-03T00:00:13.941Z,96.50
2019-05-03T00:02:52.229Z,96.40
2019-05-03T00:05:32.473Z,97.20
2019-05-03T00:08:07.598Z,96.60
2019-05-03T00:10:36.330Z,96.70
2019-05-03T00:13:04.286Z,97.10
2019-05-03T00:15:44.489Z,97.20
2019-05-03T00:18:11.806Z,97.30
2019-05-03T00:20:39.091Z,97.50
2019-05-03T00:23:06.359Z,97.40
2019-05-03T00:25:33.606Z,97.60
2019-05-03T00:28:01.889Z,97.60
2019-05-03T00:30:29.632Z,97.70
2019-05-03T00:32:56.883Z,97.80
2019-05-03T00:35:34.119Z,97.80
2019-05-03T00:38:03.165Z,97.70
2019-05-03T00:40:32.256Z,97.90
2019-05-03T00:42:59.576Z,98.00
2019-05-03T00:45:26.940Z,97.90
2019-05-03T00:47:54.209Z,97.80
2019-05-03T00:50:22.563Z,98.10
2019-05-03T00:52:51.447Z,97.70
2019-05-03T00:55:19.372Z,98.00
2019-05-03T00:57:46.819Z,98.00
2019-05-03T01:00:14.081Z,98.10
2019-05-03T01:02:42.334Z,98.00
2019-05-03T01:05:11.821Z,98.00
2019-05-03T01:07:39.090Z,98.20
2019-05-03T01:10:06.556Z,98.20
2019-05-03T01:12:33.815Z,98.40
2019-05-03T01:15:02.858Z,98.50
2019-05-03T01:17:31.710Z,98.40
2019-05-03T01:19:59.531Z,98.30
2019-05-03T01:22:26.810Z,98.40
2019-05-03T01:24:54.032Z,98.40
2019-05-03T01:27:22.021Z,98.40
2019-05-03T01:29:49.422Z,98.20
2019-05-03T01:32:16.676Z,98.10
2019-05-03T01:34:44.060Z,98.20
2019-05-03T01:37:11.920Z,98.20
2019-05-03T01:39:39.441Z,98.20
2019-05-03T01:42:06.719Z,98.30
2019-05-03T01:44:33.997Z,98.20
2019-05-03T01:47:03.964Z,98.20
2019-05-03T01:49:36.562Z,98.30
2019-05-03T01:52:21.933Z,98.10
2019-05-03T01:54:49.406Z,98.00
2019-05-03T01:57:16.628Z,98.10
2019-05-03T01:59:43.979Z,98.00
2019-05-03T02:02:33.909Z,98.40
2019-05-03T02:05:39.029Z,98.40
2019-05-03T02:08:06.316Z,98.10
2019-05-03T02:10:33.567Z,98.00
2019-05-03T02:13:01.666Z,97.90
2019-05-03T02:15:29.155Z,97.80
2019-05-03T02:17:56.387Z,97.80
2019-05-03T02:20:23.643Z,97.80
2019-05-03T02:22:52.200Z,97.90
2019-05-03T02:25:21.639Z,97.80
2019-05-03T02:27:48.873Z,97.70
2019-05-03T02:30:16.309Z,98.00
2019-05-03T02:32:44.165Z,98.00
2019-05-03T02:35:14.034Z,98.00
2019-05-03T02:37:43.861Z,98.00
2019-05-03T02:40:12.961Z,97.90
2019-05-03T02:42:42.692Z,98.30
2019-05-03T02:45:15.752Z,98.20
2019-05-03T02:48:08.934Z,98.00
2019-05-03T02:50:36.256Z,97.30
2019-05-03T02:53:05.740Z,97.40
2019-05-03T02:55:32.661Z,97.20
2019-05-03T02:57:59.947Z,96.90
2019-05-03T03:00:56.879Z,97.10
2019-05-03T03:03:25.592Z,97.00
2019-05-03T03:05:55.966Z,97.60
2019-05-03T03:08:26.113Z,97.80
2019-05-03T03:10:57.709Z,98.00
2019-05-03T03:13:27.491Z,98.20
2019-05-03T03:15:56.468Z,98.20
2019-05-03T03:18:25.543Z,98.40
2019-05-03T03:20:55.366Z,98.40
2019-05-03T03:23:26.488Z,98.60
2019-05-03T03:25:56.116Z,98.80
2019-05-03T03:28:25.323Z,98.70
2019-05-03T03:31:27.790Z,98.90
2019-05-03T03:33:58.927Z,98.90
2019-05-03T03:36:46.044Z,99.10
2019-05-03T03:38:51.696Z,99.20
2019-05-03T03:41:19.531Z,99.20
2019-05-03T03:43:49.754Z,99.40
2019-05-03T03:46:18.901Z,99.50
2019-05-03T03:48:46.620Z,99.20
2019-05-03T03:51:16.359Z,99.30
2019-05-03T03:53:46.543Z,99.20
2019-05-03T03:56:17.225Z,99.20
2019-05-03T03:58:46.417Z,99.20
2019-05-03T04:01:15.674Z,99.20
2019-05-03T04:03:45.740Z,99.20
2019-05-03T04:06:12.341Z,99.30
2019-05-03T04:08:40.130Z,99.20
2019-05-03T04:11:07.356Z,99.30
2019-05-03T04:13:36.148Z,99.50
2019-05-03T04:16:36.251Z,99.60
2019-05-03T04:19:07.688Z,99.70
2019-05-03T04:21:35.934Z,99.70
2019-05-03T04:24:05.849Z,99.80
2019-05-03T04:26:32.736Z,99.60
2019-05-03T04:29:01.067Z,99.40
2019-05-03T04:31:28.363Z,99.40
2019-05-03T04:33:56.272Z,99.20
2019-05-03T04:36:25.961Z,98.90
2019-05-03T04:38:56.049Z,98.40
2019-05-03T04:41:22.041Z,98.70
2019-05-03T04:43:49.280Z,99.10
2019-05-03T04:46:22.049Z,99.00
2019-05-03T04:48:49.392Z,98.90
2019-05-03T04:51:16.855Z,99.00
2019-05-03T04:53:48.424Z,99.20
2019-05-03T04:56:16.865Z,99.30
2019-05-03T04:58:45.890Z,99.60
2019-05-03T05:01:15.782Z,99.60
2019-05-03T05:03:42.512Z,99.00
2019-05-03T05:06:11.631Z,98.40
2019-05-03T05:08:38.937Z,98.70
2019-05-03T05:11:10.138Z,99.00
2019-05-03T05:13:35.736Z,98.40
2019-05-03T05:16:05.668Z,98.30
2019-05-03T05:18:40.188Z,98.10
2019-05-03T05:21:16.729Z,98.10
2019-05-03T05:23:57.646Z,98.00
2019-05-03T05:26:26.967Z,97.60
2019-05-03T05:28:57.325Z,98.00
2019-05-03T05:31:25.459Z,98.00
2019-05-03T05:33:54.531Z,97.90
2019-05-03T05:36:21.868Z,97.90
2019-05-03T05:38:49.140Z,98.00
2019-05-03T05:41:16.422Z,97.80
2019-05-03T05:43:44.644Z,97.90
2019-05-03T05:46:55.721Z,98.00
2019-05-03T05:50:00.340Z,97.80
2019-05-03T05:52:27.667Z,96.60
2019-05-03T05:55:07.687Z,96.10
2019-05-03T05:58:04.684Z,95.50
2019-05-03T06:00:38.607Z,95.50
2019-05-03T06:03:06.075Z,95.00
2019-05-03T06:05:35.413Z,94.00
2019-05-03T06:08:30.858Z,94.60
2019-05-03T06:11:06.051Z,94.40
2019-05-03T06:13:40.451Z,93.80
2019-05-03T06:16:15.596Z,94.40
2019-05-03T06:19:04.647Z,94.80
2019-05-03T06:21:36.715Z,94.40
2019-05-03T06:24:08.972Z,93.90
2019-05-03T06:27:01.746Z,93.40
2019-05-03T06:29:29.026Z,92.70
2019-05-03T06:32:34.531Z,92.70
2019-05-03T06:35:02.077Z,91.60
2019-05-03T06:37:33.174Z,93.00
2019-05-03T06:40:00.951Z,92.50
2019-05-03T06:42:28.196Z,92.00
2019-05-03T06:44:59.650Z,91.70
2019-05-03T06:47:25.334Z,92.40
2019-05-03T06:49:55.185Z,92.50
2019-05-03T06:52:25.536Z,91.80
2019-05-03T06:54:51.903Z,92.00
2019-05-03T06:57:19.430Z,93.60
2019-05-03T06:59:52.523Z,93.80
2019-05-03T07:02:39.260Z,91.10
2019-05-03T07:05:10.193Z,91.80
2019-05-03T07:07:45.164Z,90.80
2019-05-03T07:10:32.100Z,90.10
2019-05-03T07:13:04.743Z,90.50
2019-05-03T07:15:32.036Z,91.80
2019-05-03T07:17:59.278Z,89.00
2019-05-03T07:20:26.592Z,90.00
2019-05-03T07:22:55.746Z,90.50
2019-05-03T07:25:25.329Z,85.90
2019-05-03T07:27:52.560Z,86.60
2019-05-03T07:30:19.999Z,88.20
2019-05-03T07:32:51.146Z,85.80
2019-05-03T07:35:18.456Z,86.30
2019-05-03T07:37:45.717Z,85.10
2019-05-03T07:40:14.841Z,85.50
2019-05-03T07:42:42.170Z,81.50
2019-05-03T07:45:10.388Z,80.90
2019-05-03T07:47:37.721Z,82.40
2019-05-03T07:50:05.480Z,80.90
2019-05-03T07:52:34.750Z,80.70
2019-05-03T07:55:02.085Z,82.30
2019-05-03T07:57:40.664Z,81.20
2019-05-03T08:00:09.220Z,82.80
2019-05-03T08:02:36.464Z,83.40
2019-05-03T08:05:05.218Z,80.10
2019-05-03T08:07:32.560Z,77.70
2019-05-03T08:09:59.789Z,74.90
2019-05-03T08:12:27.033Z,76.20
2019-05-03T08:14:55.184Z,70.20
2019-05-03T08:17:22.615Z,68.80
2019-05-03T08:19:49.823Z,72.30
2019-05-03T08:22:17.091Z,72.10
2019-05-03T08:24:44.839Z,66.20
2019-05-03T08:27:12.266Z,65.30
2019-05-03T08:29:39.485Z,65.00
2019-05-03T08:32:24.603Z,62.10
2019-05-03T08:35:09.964Z,62.90
2019-05-03T08:37:45.285Z,60.50
2019-05-03T08:40:12.879Z,60.90
2019-05-03T08:42:40.135Z,62.70
2019-05-03T08:45:08.140Z,59.50
2019-05-03T08:47:35.520Z,60.50
2019-05-03T08:50:03.173Z,59.50
2019-05-03T08:52:32.264Z,54.50
2019-05-03T08:54:59.402Z,52.00
2019-05-03T08:57:26.533Z,54.00
2019-05-03T08:59:54.931Z,58.10
2019-05-03T09:02:22.579Z,54.50
2019-05-03T09:04:49.815Z,52.10
2019-05-03T09:07:17.169Z,51.60
2019-05-03T09:09:55.748Z,47.80
2019-05-03T09:12:25.041Z,50.30
2019-05-03T09:14:51.981Z,50.90
2019-05-03T09:17:19.288Z,51.00
2019-05-03T09:19:46.506Z,51.50
2019-05-03T09:22:14.799Z,50.00
2019-05-03T09:24:42.169Z,50.90
2019-05-03T09:27:09.437Z,53.20
2019-05-03T09:29:43.138Z,52.40
2019-05-03T09:32:05.788Z,52.40
2019-05-03T09:34:34.938Z,52.60
2019-05-03T09:37:02.146Z,54.00
2019-05-03T09:39:29.425Z,55.30
2019-05-03T09:41:56.799Z,55.50
2019-05-03T09:44:24.586Z,54.80
2019-05-03T09:46:51.976Z,56.20
2019-05-03T09:49:19.226Z,56.50
2019-05-03T09:51:46.395Z,54.30
2019-05-03T09:54:18.908Z,56.40
2019-05-03T09:59:29.244Z,56.30
2019-05-03T10:01:56.976Z,58.70
2019-05-03T10:04:25.574Z,59.60
2019-05-03T10:06:54.782Z,57.90
2019-05-03T10:09:22.341Z,55.10
2019-05-03T10:11:49.597Z,54.10
2019-05-03T10:14:16.839Z,53.20
2019-05-03T10:16:55.476Z,55.40
2019-05-03T10:19:36.310Z,54.50
2019-05-03T10:21:51.878Z,56.20
2019-05-03T10:24:19.089Z,56.20
2019-05-03T10:26:46.386Z,55.90
2019-05-03T10:29:15.220Z,53.80
2019-05-03T10:31:50.134Z,56.80
2019-05-03T10:34:17.965Z,54.50
2019-05-03T10:36:45.456Z,56.00
2019-05-03T10:39:12.740Z,59.30
2019-05-03T10:41:39.987Z,57.90
2019-05-03T10:44:07.268Z,59.00
2019-05-03T10:46:34.798Z,61.00
2019-05-03T10:49:02.090Z,59.30
2019-05-03T10:51:31.936Z,56.00
2019-05-03T10:53:59.549Z,53.50
2019-05-03T10:56:35.806Z,53.40
2019-05-03T10:59:06.215Z,54.00
2019-05-03T11:01:47.044Z,52.80
2019-05-03T11:04:14.874Z,54.40
2019-05-03T11:06:42.161Z,53.90
2019-05-03T11:09:09.829Z,52.50
2019-05-03T11:11:37.175Z,53.70
2019-05-03T11:14:05.482Z,54.30
2019-05-03T11:16:35.135Z,56.00
2019-05-03T11:19:02.364Z,55.60
2019-05-03T11:21:31.149Z,55.80
2019-05-03T11:23:58.897Z,56.10
2019-05-03T11:26:26.154Z,55.90
2019-05-03T11:28:56.498Z,56.30
2019-05-03T11:31:40.641Z,58.60
2019-05-03T11:34:09.912Z,57.50
2019-05-03T11:36:48.204Z,57.10
2019-05-03T11:39:15.450Z,59.40
2019-05-03T11:41:45.884Z,52.30
2019-05-03T11:44:31.134Z,52.10
2019-05-03T11:46:58.396Z,52.90
2019-05-03T11:49:25.699Z,50.20
2019-05-03T11:51:55.467Z,52.50
2019-05-03T11:54:22.184Z,52.10
2019-05-03T11:56:49.756Z,51.20
2019-05-03T11:59:17.258Z,52.80
2019-05-03T12:02:04.705Z,52.80
2019-05-03T12:04:31.827Z,51.60
2019-05-03T12:06:59.117Z,53.60
2019-05-03T12:09:26.383Z,50.90
2019-05-03T12:11:55.412Z,47.00
2019-05-03T12:14:24.510Z,50.30
2019-05-03T12:17:17.383Z,48.20
2019-05-03T12:19:30.979Z,47.70
2019-05-03T12:21:56.832Z,48.60
2019-05-03T12:24:26.738Z,48.00
2019-05-03T12:26:55.686Z,46.70
2019-05-03T12:29:24.578Z,46.40
2019-05-03T12:31:52.117Z,50.20
2019-05-03T12:34:19.311Z,50.00
2019-05-03T12:36:46.812Z,51.20
2019-05-03T12:39:24.276Z,51.90
2019-05-03T12:41:43.285Z,50.60
2019-05-03T12:44:10.647Z,52.10
2019-05-03T12:46:37.995Z,51.70
2019-05-03T12:51:34.418Z,53.80
2019-05-03T12:54:01.892Z,52.40
2019-05-03T12:56:32.748Z,53.90
2019-05-03T12:59:06.849Z,54.30
2019-05-03T13:01:56.105Z,54.90
2019-05-03T13:04:26.392Z,55.00
2019-05-03T13:07:01.448Z,57.10
2019-05-03T13:09:28.737Z,57.60
2019-05-03T13:11:59.052Z,58.00
2019-05-03T13:14:26.206Z,58.40
2019-05-03T13:16:55.246Z,55.20
2019-05-03T13:19:22.639Z,55.30
2019-05-03T13:21:49.881Z,57.70
2019-05-03T13:24:23.087Z,57.80
2019-05-03T13:26:46.250Z,57.80
2019-05-03T13:29:15.315Z,54.30
2019-05-03T13:31:55.779Z,54.80
2019-05-03T13:34:11.957Z,54.90
2019-05-03T13:36:39.267Z,53.40
2019-05-03T13:39:13.883Z,52.30
2019-05-03T13:41:35.815Z,50.10
2019-05-03T13:44:05.044Z,51.40
2019-05-03T13:46:32.236Z,54.40
2019-05-03T13:48:59.543Z,52.30
2019-05-03T13:51:26.805Z,57.50
2019-05-03T13:53:55.042Z,57.50
2019-05-03T13:56:24.568Z,58.80
2019-05-03T13:58:51.925Z,58.60
2019-05-03T14:01:19.174Z,57.70
2019-05-03T14:03:46.448Z,57.70
2019-05-03T14:06:13.794Z,58.90
2019-05-03T14:08:41.243Z,59.00
2019-05-03T14:11:08.799Z,60.00
2019-05-03T14:13:36.104Z,60.80
2019-05-03T14:16:05.537Z,60.70
2019-05-03T14:18:35.154Z,61.20
2019-05-03T14:21:17.124Z,59.90
2019-05-03T14:24:02.599Z,60.80
2019-05-03T14:26:29.863Z,59.30
2019-05-03T14:28:57.174Z,60.50
2019-05-03T14:31:25.165Z,62.10
2019-05-03T14:33:52.609Z,59.70
2019-05-03T14:36:20.026Z,59.20
2019-05-03T14:38:47.313Z,58.00
2019-05-03T14:41:15.065Z,56.60
2019-05-03T14:43:42.489Z,56.30
2019-05-03T14:46:09.842Z,55.20
2019-05-03T14:48:37.114Z,55.70
2019-05-03T14:51:05.491Z,54.90
2019-05-03T14:53:34.653Z,54.60
2019-05-03T14:56:11.110Z,55.00
2019-05-03T14:58:56.550Z,55.10
2019-05-03T15:01:30.768Z,53.50
2019-05-03T15:03:58.032Z,52.20
2019-05-03T15:06:25.425Z,51.90
2019-05-03T15:08:54.743Z,52.20
2019-05-03T15:11:22.231Z,50.80
2019-05-03T15:13:49.632Z,51.10
2019-05-03T15:16:16.907Z,50.40
2019-05-03T15:18:45.369Z,51.90
2019-05-03T15:21:14.566Z,51.90
2019-05-03T15:23:42.010Z,53.10
2019-05-03T15:26:09.313Z,55.30
2019-05-03T15:28:36.587Z,56.20
2019-05-03T15:31:04.578Z,55.40
2019-05-03T15:33:32.052Z,53.10
2019-05-03T15:35:59.299Z,51.50
2019-05-03T15:38:26.566Z,50.80
2019-05-03T15:40:54.829Z,50.50
2019-05-03T15:43:31.692Z,51.40
2019-05-03T15:46:21.581Z,51.10
2019-05-03T15:48:51.805Z,51.30
2019-05-03T15:51:19.045Z,50.80
2019-05-03T15:53:46.309Z,50.50
2019-05-03T15:56:14.662Z,50.90
2019-05-03T15:58:44.353Z,52.40
2019-05-03T16:01:11.299Z,54.60
2019-05-03T16:03:38.568Z,54.40
2019-05-03T16:06:05.845Z,56.40
2019-05-03T16:08:33.124Z,56.00
2019-05-03T16:11:00.382Z,55.10
2019-05-03T16:13:27.624Z,55.50
2019-05-03T16:15:55.396Z,56.50
2019-05-03T16:18:24.596Z,56.60
2019-05-03T16:20:54.370Z,57.30
2019-05-03T16:23:21.384Z,57.20
2019-05-03T16:25:48.655Z,56.50
2019-05-03T16:28:22.193Z,55.90
2019-05-03T16:30:58.231Z,55.10
2019-05-03T16:33:27.982Z,55.20
2019-05-03T16:35:54.986Z,56.00
2019-05-03T16:38:22.300Z,55.30
2019-05-03T16:40:49.555Z,56.50
2019-05-03T16:43:16.807Z,54.70
2019-05-03T16:45:44.448Z,56.10
2019-05-03T16:48:12.011Z,58.10
2019-05-03T16:50:39.252Z,57.70
2019-05-03T16:53:06.479Z,57.40
2019-05-03T16:55:35.144Z,59.10
2019-05-03T16:58:02.652Z,59.50
2019-05-03T17:00:29.914Z,60.10
2019-05-03T17:02:57.182Z,59.90
2019-05-03T17:05:46.724Z,60.80
2019-05-03T17:08:21.073Z,59.40
2019-05-03T17:10:49.540Z,60.10
2019-05-03T17:13:16.968Z,59.70
2019-05-03T17:15:44.257Z,59.10
2019-05-03T17:18:14.686Z,61.70
2019-05-03T17:20:42.132Z,60.30
2019-05-03T17:23:09.469Z,59.50
2019-05-03T17:25:36.724Z,59.90
2019-05-03T17:28:05.042Z,62.00
2019-05-03T17:30:34.449Z,62.90
2019-05-03T17:33:01.640Z,62.80
2019-05-03T17:35:28.920Z,63.40
2019-05-03T17:37:56.181Z,64.90
2019-05-03T17:40:44.156Z,66.00
2019-05-03T17:43:29.021Z,66.00
2019-05-03T17:45:57.071Z,66.80
2019-05-03T17:48:24.291Z,67.10
2019-05-03T17:50:51.572Z,68.10
2019-05-03T17:53:54.800Z,68.10
2019-05-03T17:56:50.729Z,69.00
2019-05-03T17:59:24.432Z,68.00
2019-05-03T18:02:11.368Z,69.70
2019-05-03T18:04:49.036Z,67.60
2019-05-03T18:07:24.348Z,67.70
2019-05-03T18:09:51.947Z,66.00
2019-05-03T18:12:19.240Z,65.70
2019-05-03T18:14:46.521Z,64.80
2019-05-03T18:17:14.778Z,65.10
2019-05-03T18:19:42.204Z,65.70
2019-05-03T18:22:09.420Z,65.20
2019-05-03T18:24:36.733Z,65.30
2019-05-03T18:27:04.025Z,66.60
2019-05-03T18:29:31.325Z,65.40
2019-05-03T18:31:58.562Z,66.20
2019-05-03T18:34:25.992Z,66.30
2019-05-03T18:36:53.402Z,65.10
2019-05-03T18:39:20.760Z,63.70
2019-05-03T18:41:48.038Z,63.80
2019-05-03T18:44:21.400Z,65.60
2019-05-03T18:46:55.070Z,65.80
2019-05-03T18:49:22.431Z,66.00
2019-05-03T18:51:49.695Z,66.60
2019-05-03T18:54:16.982Z,67.20
2019-05-03T18:56:44.258Z,67.30
2019-05-03T18:59:11.527Z,68.00
2019-05-03T19:01:38.829Z,66.60
2019-05-03T19:04:14.582Z,66.70
2019-05-03T19:06:42.076Z,66.70
2019-05-03T19:09:28.908Z,66.70
2019-05-03T19:12:15.286Z,69.30
2019-05-03T19:14:43.237Z,70.20
2019-05-03T19:17:36.093Z,70.30
2019-05-03T19:20:06.603Z,71.40
2019-05-03T19:22:34.451Z,71.50
2019-05-03T19:25:02.131Z,70.90
2019-05-03T19:27:29.484Z,72.00
2019-05-03T19:29:56.739Z,65.20
2019-05-03T19:32:25.421Z,65.60
2019-05-03T19:34:54.958Z,66.70
2019-05-03T19:37:22.435Z,66.00
2019-05-03T19:39:49.736Z,64.70
2019-05-03T19:42:17.045Z,67.70
2019-05-03T19:44:45.385Z,71.00
2019-05-03T19:47:12.835Z,74.20
2019-05-03T19:49:40.124Z,76.70
2019-05-03T19:52:08.080Z,79.20
2019-05-03T19:54:36.539Z,78.30
2019-05-03T19:57:05.013Z,79.10
2019-05-03T19:59:49.889Z,79.20
2019-05-03T20:02:24.824Z,78.70
2019-05-03T20:05:11.632Z,77.80
2019-05-03T20:07:45.267Z,78.40
2019-05-03T20:10:14.691Z,77.50
2019-05-03T20:12:42.139Z,76.30
2019-05-03T20:15:11.993Z,74.50
2019-05-03T20:17:39.277Z,74.40
2019-05-03T20:20:07.010Z,75.20
2019-05-03T20:22:35.126Z,78.20
2019-05-03T20:25:04.610Z,79.30
2019-05-03T20:27:31.879Z,78.90
2019-05-03T20:29:59.639Z,76.90
2019-05-03T20:32:26.915Z,76.60
2019-05-03T20:34:55.095Z,77.20
2019-05-03T20:37:22.576Z,77.20
2019-05-03T20:39:50.112Z,76.70
2019-05-03T20:42:36.890Z,77.50
2019-05-03T20:45:06.890Z,78.30
2019-05-03T20:48:20.483Z,79.20
2019-05-03T20:50:47.742Z,80.00
2019-05-03T20:53:15.063Z,79.60
2019-05-03T20:55:42.338Z,78.80
2019-05-03T20:58:11.438Z,79.30
2019-05-03T21:00:38.783Z,79.60
2019-05-03T21:03:06.036Z,78.30
2019-05-03T21:05:35.421Z,78.40
2019-05-03T21:08:02.639Z,77.90
2019-05-03T21:10:29.884Z,79.80
2019-05-03T21:12:57.146Z,79.60
2019-05-03T21:15:35.467Z,78.30
2019-05-03T21:18:24.243Z,78.00
2019-05-03T21:21:11.381Z,79.10
2019-05-03T21:23:42.059Z,79.70
2019-05-03T21:26:13.384Z,80.00
2019-05-03T21:28:38.512Z,80.20
2019-05-03T21:31:06.137Z,79.80
2019-05-03T21:33:35.319Z,80.00
2019-05-03T21:36:04.490Z,79.30
2019-05-03T21:38:31.970Z,78.90
2019-05-03T21:40:59.651Z,80.10
2019-05-03T21:43:26.949Z,79.20
2019-05-03T21:46:01.095Z,79.40
2019-05-03T21:48:47.097Z,80.50
2019-05-03T21:51:15.041Z,80.30
2019-05-03T21:53:42.393Z,81.00
2019-05-03T21:56:09.695Z,80.10
2019-05-03T21:58:36.955Z,79.50
2019-05-03T22:01:06.914Z,80.10
2019-05-03T22:03:35.466Z,80.50
2019-05-03T22:06:02.968Z,79.70
2019-05-03T22:08:30.263Z,80.50
2019-05-03T22:10:57.644Z,81.10
2019-05-03T22:13:24.894Z,81.50
2019-05-03T22:15:57.628Z,82.30
2019-05-03T22:18:26.306Z,81.40
2019-05-03T22:21:24.939Z,81.00
2019-05-03T22:24:14.875Z,81.40
2019-05-03T22:26:53.744Z,81.30
2019-05-03T22:29:21.682Z,82.00
2019-05-03T22:31:49.022Z,82.20
2019-05-03T22:34:16.569Z,80.70
2019-05-03T22:36:44.406Z,81.20
2019-05-03T22:39:11.941Z,80.90
2019-05-03T22:41:39.301Z,81.10
2019-05-03T22:44:06.621Z,80.90
2019-05-03T22:46:33.844Z,81.40
2019-05-03T22:49:01.138Z,81.80
2019-05-03T22:51:28.419Z,81.40
2019-05-03T22:53:55.759Z,81.90
2019-05-03T22:56:24.745Z,82.30
2019-05-03T22:58:52.252Z,82.40
2019-05-03T23:01:19.476Z,82.80
2019-05-03T23:03:46.748Z,83.40
2019-05-03T23:06:21.966Z,83.10
2019-05-03T23:08:43.151Z,83.20
2019-05-03T23:11:10.491Z,83.40
2019-05-03T23:13:37.810Z,83.10
2019-05-03T23:16:05.208Z,83.60
2019-05-03T23:18:32.742Z,83.20
2019-05-03T23:21:06.674Z,83.10
2019-05-03T23:23:52.314Z,83.20
2019-05-03T23:26:19.581Z,82.80
2019-05-03T23:28:46.809Z,82.50
2019-05-03T23:31:14.767Z,82.50
2019-05-03T23:33:42.223Z,82.00
2019-05-03T23:36:09.678Z,83.00
2019-05-03T23:38:36.933Z,83.10
2019-05-03T23:41:04.909Z,83.60
2019-05-03T23:43:32.319Z,83.50
2019-05-03T23:45:59.684Z,83.80
2019-05-03T23:48:26.947Z,83.80
2019-05-03T23:50:55.161Z,84.20
2019-05-03T23:53:22.539Z,84.60
2019-05-03T23:55:54.235Z,84.70
2019-05-03T23:58:21.506Z,85.20
